Ria Da Coruna — EAGB — position and weather

sailwx.info

Track history (hours):
 
Tides and Currents Weather Stations Pressure Air Temp Water Temp Dewpoint Dewpoint Depression Visibility Wind Speed Wind Dir Waves Ship Positions

Ria Da Coruna

Last reported at 2017-Feb-18 08:31 UTC. Time now 2017-Feb-19 14:34 UTC.
Position N 43°18' W 002°12'.

Length 28 m.

Type: Fishing. MMSI: 224068650.

Date/timePositionNaut miles runAvg speedWind from/ knotsBaromVisibWave heightAir tempDewpointWater temp
2017-Feb-18 08:31N 43°18' W 002°12'0 0.0
2017-Feb-18 07:33N 43°18' W 002°12'52 1.9
2017-Feb-17 03:28N 44°01' W 001°30'8 9.3
2017-Feb-17 02:33N 44°09' W 001°28'5 4.9
2017-Feb-17 01:33N 44°14' W 001°28'0 0.4
2017-Feb-17 00:33N 44°14' W 001°28'1 0.5
2017-Feb-16 23:33N 44°13' W 001°27'5 3.5
2017-Feb-16 22:11N 44°18' W 001°30'1 1.3
2017-Feb-16 21:33N 44°18' W 001°29'47 3.6
2017-Feb-16 08:21N 43°39' W 002°05'810.5
2017-Feb-16 07:33N 43°46' W 001°59'1110.5
2017-Feb-16 06:33N 43°55' W 001°51'1010.4
2017-Feb-16 05:33N 44°04' W 001°44'1010.3
2017-Feb-16 04:33N 44°13' W 001°37'1010.0
2017-Feb-16 03:33N 44°21' W 001°29'7 6.7
2017-Feb-16 02:33N 44°27' W 001°24'0 0.5
2017-Feb-16 01:34N 44°26' W 001°24'1 1.1
2017-Feb-16 00:33N 44°25' W 001°24'1 0.6
2017-Feb-15 23:33N 44°24' W 001°24'3 2.6
2017-Feb-15 22:33N 44°22' W 001°26'74 5.3
2017-Feb-15 08:33N 43°21' W 002°23'5 3.8
2017-Feb-15 07:14N 43°26' W 002°23'1 1.1
2017-Feb-15 06:29N 43°25' W 002°23'2 1.3
2017-Feb-15 05:18N 43°23' W 002°22'21 0.9
2017-Feb-14 05:27N 43°22' W 001°54'1 0.8
2017-Feb-14 04:31N 43°22' W 001°55'2 0.3
2017-Feb-13 22:22N 43°21' W 001°57'4 4.0
2017-Feb-13 21:29N 43°23' W 001°53'0 0.0
2017-Feb-13 20:25N 43°23' W 001°53'0 0.1
2017-Feb-13 19:28N 43°23' W 001°53'  
2017-Feb-10 11:33N 43°19' W 002°25'4 3.8
2017-Feb-10 10:33N 43°20' W 002°20'1210.7
2017-Feb-10 09:28N 43°21' W 002°04'10 2.1
2017-Feb-10 04:33N 43°23' W 001°51'1 1.0
2017-Feb-10 03:33N 43°24' W 001°49'2 1.9
2017-Feb-10 02:32N 43°24' W 001°52'2 0.7
2017-Feb-09 23:21N 43°26' W 001°51'4 4.3
2017-Feb-09 22:29N 43°22' W 001°54'0 0.2
2017-Feb-09 21:33N 43°22' W 001°53'0 0.1
2017-Feb-09 19:27N 43°22' W 001°54'4 3.8
2017-Feb-09 18:27N 43°24' W 001°49'3 0.3
2017-Feb-09 07:09N 43°22' W 001°53'0 0.3
2017-Feb-09 06:34N 43°22' W 001°53'4 4.3
2017-Feb-09 05:33N 43°25' W 001°48'  
Track history (hours):
 
Tides and Currents Weather Stations Pressure Air Temp Water Temp Dewpoint Dewpoint Depression Visibility Wind Speed Wind Dir Waves Ship Positions

Ria Da Coruna

Last reported at 2017-Feb-18 08:31 UTC. Time now 2017-Feb-19 14:34 UTC.
Position N 43°18' W 002°12'.

Length 28 m.

Type: Fishing. MMSI: 224068650.

Date/timePositionNaut miles runAvg speedWind from/ knotsBaromVisibWave heightAir tempDewpointWater temp
2017-Feb-18 08:31N 43°18' W 002°12'0 0.0
2017-Feb-18 07:33N 43°18' W 002°12'52 1.9
2017-Feb-17 03:28N 44°01' W 001°30'8 9.3
2017-Feb-17 02:33N 44°09' W 001°28'5 4.9
2017-Feb-17 01:33N 44°14' W 001°28'0 0.4
2017-Feb-17 00:33N 44°14' W 001°28'1 0.5
2017-Feb-16 23:33N 44°13' W 001°27'5 3.5
2017-Feb-16 22:11N 44°18' W 001°30'1 1.3
2017-Feb-16 21:33N 44°18' W 001°29'47 3.6
2017-Feb-16 08:21N 43°39' W 002°05'810.5
2017-Feb-16 07:33N 43°46' W 001°59'1110.5
2017-Feb-16 06:33N 43°55' W 001°51'1010.4
2017-Feb-16 05:33N 44°04' W 001°44'1010.3
2017-Feb-16 04:33N 44°13' W 001°37'1010.0
2017-Feb-16 03:33N 44°21' W 001°29'7 6.7
2017-Feb-16 02:33N 44°27' W 001°24'0 0.5
2017-Feb-16 01:34N 44°26' W 001°24'1 1.1
2017-Feb-16 00:33N 44°25' W 001°24'1 0.6
2017-Feb-15 23:33N 44°24' W 001°24'3 2.6
2017-Feb-15 22:33N 44°22' W 001°26'74 5.3
2017-Feb-15 08:33N 43°21' W 002°23'5 3.8
2017-Feb-15 07:14N 43°26' W 002°23'1 1.1
2017-Feb-15 06:29N 43°25' W 002°23'2 1.3
2017-Feb-15 05:18N 43°23' W 002°22'21 0.9
2017-Feb-14 05:27N 43°22' W 001°54'1 0.8
2017-Feb-14 04:31N 43°22' W 001°55'2 0.3
2017-Feb-13 22:22N 43°21' W 001°57'4 4.0
2017-Feb-13 21:29N 43°23' W 001°53'0 0.0
2017-Feb-13 20:25N 43°23' W 001°53'0 0.1
2017-Feb-13 19:28N 43°23' W 001°53'  
2017-Feb-10 11:33N 43°19' W 002°25'4 3.8
2017-Feb-10 10:33N 43°20' W 002°20'1210.7
2017-Feb-10 09:28N 43°21' W 002°04'10 2.1
2017-Feb-10 04:33N 43°23' W 001°51'1 1.0
2017-Feb-10 03:33N 43°24' W 001°49'2 1.9
2017-Feb-10 02:32N 43°24' W 001°52'2 0.7
2017-Feb-09 23:21N 43°26' W 001°51'4 4.3
2017-Feb-09 22:29N 43°22' W 001°54'0 0.2
2017-Feb-09 21:33N 43°22' W 001°53'0 0.1
2017-Feb-09 19:27N 43°22' W 001°54'4 3.8
2017-Feb-09 18:27N 43°24' W 001°49'3 0.3
2017-Feb-09 07:09N 43°22' W 001°53'0 0.3
2017-Feb-09 06:34N 43°22' W 001°53'4 4.3
2017-Feb-09 05:33N 43°25' W 001°48'  

Dump ship's entire track history